createdAt,value
2018-09-11T00:01:52.596Z,5.50
2018-09-11T00:04:20.595Z,5.23
2018-09-11T00:06:48.647Z,5.17
2018-09-11T00:11:51.060Z,4.97
2018-09-11T00:14:19.068Z,4.20
2018-09-11T00:16:47.120Z,4.57
2018-09-11T00:19:15.116Z,4.93
2018-09-11T00:21:43.080Z,4.80
2018-09-11T00:24:11.092Z,4.87
2018-09-11T00:26:39.092Z,4.87
2018-09-11T00:29:07.091Z,4.90
2018-09-11T00:31:35.718Z,5.13
2018-09-11T00:34:03.698Z,4.97
2018-09-11T00:36:31.672Z,4.90
2018-09-11T00:38:59.667Z,5.23
2018-09-11T00:41:27.656Z,4.97
2018-09-11T00:43:55.663Z,4.87
2018-09-11T00:46:23.680Z,5.90
2018-09-11T00:48:51.680Z,5.23
2018-09-11T00:51:19.643Z,5.40
2018-09-11T00:53:47.664Z,5.07
2018-09-11T00:56:15.628Z,4.90
2018-09-11T00:58:43.615Z,5.20
2018-09-11T01:01:11.601Z,5.50
2018-09-11T01:03:39.604Z,5.73
2018-09-11T01:06:07.576Z,4.63
2018-09-11T01:08:35.760Z,5.27
2018-09-11T01:11:03.733Z,4.70
2018-09-11T01:13:31.696Z,5.53
2018-09-11T01:15:59.668Z,5.40
2018-09-11T01:18:27.669Z,5.17
2018-09-11T01:20:55.668Z,5.27
2018-09-11T01:23:23.625Z,4.93
2018-09-11T01:25:51.629Z,4.77
2018-09-11T01:28:19.597Z,5.70
2018-09-11T01:30:47.577Z,5.33
2018-09-11T01:33:15.552Z,5.30
2018-09-11T01:35:43.549Z,4.97
2018-09-11T01:38:11.547Z,5.10
2018-09-11T01:40:39.541Z,5.30
2018-09-11T01:43:07.564Z,6.27
2018-09-11T01:45:36.021Z,6.10
2018-09-11T01:48:04.026Z,6.07
2018-09-11T01:50:32.002Z,5.97
2018-09-11T01:53:00.003Z,6.30
2018-09-11T01:55:28.006Z,6.37
2018-09-11T01:57:55.969Z,6.93
2018-09-11T02:00:24.046Z,7.10
2018-09-11T02:02:52.027Z,7.70
2018-09-11T02:05:19.992Z,6.73
2018-09-11T02:07:48.514Z,6.90
2018-09-11T02:10:16.498Z,7.17
2018-09-11T02:12:44.473Z,6.70
2018-09-11T02:15:12.514Z,7.10
2018-09-11T02:17:40.908Z,6.90
2018-09-11T02:20:08.934Z,6.60
2018-09-11T02:22:37.062Z,7.77
2018-09-11T02:25:05.062Z,6.90
2018-09-11T02:27:33.158Z,6.67
2018-09-11T02:30:01.194Z,6.13
2018-09-11T02:32:29.188Z,6.27
2018-09-11T02:34:57.202Z,6.40
2018-09-11T02:37:25.210Z,6.30
2018-09-11T02:39:53.209Z,5.97
2018-09-11T02:42:21.186Z,6.40
2018-09-11T02:44:49.214Z,5.80
2018-09-11T02:47:17.183Z,5.97
2018-09-11T02:49:45.206Z,6.20
2018-09-11T02:52:13.203Z,6.00
2018-09-11T02:54:41.570Z,6.07
2018-09-11T02:57:09.562Z,6.00
2018-09-11T02:59:37.563Z,6.47
2018-09-11T03:02:05.551Z,6.70
2018-09-11T03:04:33.526Z,5.90
2018-09-11T03:07:01.531Z,6.00
2018-09-11T03:09:29.507Z,5.90
2018-09-11T03:11:57.523Z,6.13
2018-09-11T03:14:25.528Z,5.83
2018-09-11T03:16:53.559Z,6.40
2018-09-11T03:19:21.534Z,5.93
2018-09-11T03:21:49.606Z,6.10
2018-09-11T03:24:17.655Z,5.67
2018-09-11T03:26:45.638Z,5.60
2018-09-11T03:29:13.598Z,5.70
2018-09-11T03:31:41.614Z,5.63
2018-09-11T03:34:09.608Z,5.53
2018-09-11T03:36:37.607Z,5.37
2018-09-11T03:39:06.698Z,5.27
2018-09-11T03:41:34.666Z,5.80
2018-09-11T03:44:02.740Z,5.23
2018-09-11T03:46:30.707Z,6.50
2018-09-11T03:48:58.679Z,5.77
2018-09-11T03:51:26.659Z,5.43
2018-09-11T03:53:54.718Z,5.80
2018-09-11T03:56:22.703Z,5.53
2018-09-11T03:58:50.731Z,5.70
2018-09-11T04:01:18.740Z,5.90
2018-09-11T04:03:46.726Z,5.80
2018-09-11T04:06:14.695Z,5.33
2018-09-11T04:08:42.739Z,5.70
2018-09-11T04:11:10.691Z,5.50
2018-09-11T04:13:38.681Z,5.33
2018-09-11T04:16:06.703Z,5.90
2018-09-11T04:18:34.943Z,4.80
2018-09-11T04:21:03.391Z,5.17
2018-09-11T04:23:31.695Z,5.40
2018-09-11T04:25:59.927Z,5.20
2018-09-11T04:28:28.392Z,5.37
2018-09-11T04:30:56.691Z,5.73
2018-09-11T04:33:24.924Z,5.07
2018-09-11T04:35:53.154Z,5.17
2018-09-11T04:38:21.458Z,5.17
2018-09-11T04:40:49.710Z,5.00
2018-09-11T04:43:17.971Z,5.13
2018-09-11T04:45:46.338Z,4.72
2018-09-11T04:48:14.330Z,4.90
2018-09-11T04:50:42.337Z,5.23
2018-09-11T04:53:10.395Z,4.97
2018-09-11T04:55:38.405Z,4.70
2018-09-11T04:58:06.451Z,5.10
2018-09-11T05:00:34.470Z,4.87
2018-09-11T05:03:02.500Z,4.73
2018-09-11T05:05:30.510Z,4.50
2018-09-11T05:07:58.535Z,4.13
2018-09-11T05:10:26.546Z,5.50
2018-09-11T05:12:54.538Z,5.60
2018-09-11T05:15:22.654Z,4.57
2018-09-11T05:17:50.786Z,5.00
2018-09-11T05:20:18.779Z,4.83
2018-09-11T05:22:46.750Z,4.73
2018-09-11T05:25:14.823Z,5.07
2018-09-11T05:27:42.871Z,4.90
2018-09-11T05:30:10.873Z,4.50
2018-09-11T05:32:39.587Z,4.77
2018-09-11T05:35:07.615Z,4.17
2018-09-11T05:37:35.642Z,4.77
2018-09-11T05:40:03.710Z,4.73
2018-09-11T05:42:32.026Z,4.27
2018-09-11T05:45:00.107Z,4.23
2018-09-11T05:47:28.135Z,4.20
2018-09-11T05:49:56.126Z,4.47
2018-09-11T05:52:24.187Z,10.70
2018-09-11T05:54:52.198Z,4.17
2018-09-11T05:57:20.290Z,4.40
2018-09-11T05:59:48.266Z,4.63
2018-09-11T06:02:16.315Z,4.27
2018-09-11T06:04:44.298Z,4.90
2018-09-11T06:07:12.371Z,5.40
2018-09-11T06:09:40.677Z,5.33
2018-09-11T06:12:08.707Z,4.60
2018-09-11T06:14:37.420Z,4.93
2018-09-11T06:17:05.498Z,4.27
2018-09-11T06:19:33.487Z,5.20
2018-09-11T06:22:01.440Z,4.60
2018-09-11T06:24:29.467Z,4.83
2018-09-11T06:26:57.467Z,5.10
2018-09-11T06:29:25.460Z,5.03
2018-09-11T06:31:53.754Z,5.00
2018-09-11T06:34:21.764Z,5.27
2018-09-11T06:36:50.016Z,4.77
2018-09-11T06:39:18.258Z,5.57
2018-09-11T06:41:46.531Z,5.60
2018-09-11T06:44:14.934Z,5.57
2018-09-11T06:46:43.227Z,5.30
2018-09-11T06:49:11.255Z,5.17
2018-09-11T06:51:39.620Z,5.20
2018-09-11T06:54:07.875Z,4.80
2018-09-11T06:56:36.119Z,4.93
2018-09-11T06:59:04.423Z,4.97
2018-09-11T07:01:32.625Z,5.97
2018-09-11T07:04:00.968Z,5.67
2018-09-11T07:06:29.200Z,5.17
2018-09-11T07:08:57.464Z,5.70
2018-09-11T07:11:25.808Z,5.17
2018-09-11T07:13:54.049Z,5.90
2018-09-11T07:16:22.363Z,5.37
2018-09-11T07:18:50.604Z,5.33
2018-09-11T07:21:19.028Z,5.63
2018-09-11T07:23:47.284Z,4.97
2018-09-11T07:26:15.652Z,5.17
2018-09-11T07:28:45.167Z,5.85
2018-09-11T07:31:15.815Z,5.40
2018-09-11T07:33:46.699Z,5.00
2018-09-11T07:36:20.727Z,5.33
2018-09-11T07:38:52.552Z,4.80
2018-09-11T07:41:23.184Z,4.47
2018-09-11T07:43:53.344Z,5.10
2018-09-11T07:46:25.400Z,4.73
2018-09-11T07:48:55.168Z,4.70
2018-09-11T07:51:24.796Z,5.07
2018-09-11T07:53:57.936Z,5.47
2018-09-11T07:56:26.328Z,6.07
2018-09-11T07:58:57.056Z,5.20
2018-09-11T08:01:25.248Z,4.80
2018-09-11T08:03:53.472Z,5.00
2018-09-11T08:06:21.696Z,4.60
2018-09-11T08:08:49.936Z,4.57
2018-09-11T08:11:18.268Z,4.47
2018-09-11T08:13:46.488Z,4.53
2018-09-11T08:16:14.791Z,4.20
2018-09-11T08:18:42.735Z,4.27
2018-09-11T08:21:11.433Z,3.93
2018-09-11T08:23:39.648Z,4.60
2018-09-11T08:26:07.920Z,4.40
2018-09-11T08:28:36.227Z,4.63
2018-09-11T08:31:04.416Z,4.70
2018-09-11T08:33:32.658Z,5.27
2018-09-11T08:36:00.937Z,5.23
2018-09-11T08:38:29.168Z,4.63
2018-09-11T08:40:57.413Z,5.43
2018-09-11T08:43:25.597Z,4.70
2018-09-11T08:45:53.828Z,5.20
2018-09-11T08:48:22.018Z,5.07
2018-09-11T08:50:49.986Z,5.07
2018-09-11T08:53:17.926Z,5.17
2018-09-11T08:55:45.874Z,4.67
2018-09-11T08:58:13.872Z,4.20
2018-09-11T09:00:41.969Z,4.47
2018-09-11T09:03:09.991Z,4.30
2018-09-11T09:05:38.698Z,4.10
2018-09-11T09:08:06.734Z,4.07
2018-09-11T09:10:34.743Z,3.90
2018-09-11T09:13:02.742Z,3.57
2018-09-11T09:15:30.843Z,3.50
2018-09-11T09:17:58.766Z,3.43
2018-09-11T09:20:26.777Z,3.33
2018-09-11T09:22:54.759Z,4.03
2018-09-11T09:25:22.719Z,3.40
2018-09-11T09:27:50.743Z,3.80
2018-09-11T09:30:18.734Z,3.47
2018-09-11T09:32:46.723Z,4.23
2018-09-11T09:35:14.750Z,3.37
2018-09-11T09:37:42.745Z,3.30
2018-09-11T09:40:10.920Z,3.00
2018-09-11T09:42:39.653Z,3.20
2018-09-11T09:45:13.684Z,3.87
2018-09-11T09:47:41.734Z,3.20
2018-09-11T09:50:09.858Z,3.10
2018-09-11T09:52:38.871Z,2.90
2018-09-11T09:55:06.867Z,3.37
2018-09-11T09:57:34.918Z,3.33
2018-09-11T10:00:02.903Z,3.30
2018-09-11T10:02:30.888Z,3.20
2018-09-11T10:04:58.954Z,3.10
2018-09-11T10:07:26.915Z,3.23
2018-09-11T10:09:54.930Z,3.20
2018-09-11T10:12:22.918Z,3.20
2018-09-11T10:14:50.915Z,3.33
2018-09-11T10:17:18.918Z,3.03
2018-09-11T10:19:47.442Z,2.50
2018-09-11T10:22:15.915Z,3.17
2018-09-11T10:24:44.210Z,2.70
2018-09-11T10:27:12.719Z,3.00
2018-09-11T10:29:41.319Z,3.50
2018-09-11T10:32:09.642Z,2.97
2018-09-11T10:34:37.924Z,3.00
2018-09-11T10:37:06.206Z,2.97
2018-09-11T10:39:34.515Z,2.63
2018-09-11T10:42:02.807Z,2.60
2018-09-11T10:44:31.141Z,3.03
2018-09-11T10:46:59.415Z,2.73
2018-09-11T10:49:27.695Z,3.00
2018-09-11T10:51:56.161Z,2.67
2018-09-11T10:54:24.415Z,2.60
2018-09-11T10:56:52.767Z,2.70
2018-09-11T10:59:21.031Z,2.70
2018-09-11T11:01:49.267Z,2.67
2018-09-11T11:04:17.571Z,2.83
2018-09-11T11:06:45.816Z,2.62
2018-09-11T11:09:14.055Z,3.07
2018-09-11T11:11:42.323Z,2.50
2018-09-11T11:14:10.588Z,3.17
2018-09-11T11:16:38.876Z,2.60
2018-09-11T11:19:07.224Z,2.90
2018-09-11T11:21:35.576Z,2.73
2018-09-11T11:24:03.856Z,2.70
2018-09-11T11:26:32.276Z,2.63
2018-09-11T11:29:00.544Z,2.80
2018-09-11T11:31:28.808Z,3.13
2018-09-11T11:33:57.107Z,2.77
2018-09-11T11:36:25.529Z,3.17
2018-09-11T11:38:53.608Z,2.77
2018-09-11T11:41:21.859Z,2.70
2018-09-11T11:43:50.332Z,2.97
2018-09-11T11:46:18.347Z,2.70
2018-09-11T11:48:46.629Z,2.80
2018-09-11T11:51:14.922Z,2.50
2018-09-11T11:53:43.192Z,3.10
2018-09-11T11:56:11.484Z,2.90
2018-09-11T11:58:40.324Z,3.10
2018-09-11T12:01:08.352Z,3.33
2018-09-11T12:03:36.336Z,2.33
2018-09-11T12:06:04.379Z,3.10
2018-09-11T12:08:32.609Z,2.87
2018-09-11T12:11:00.858Z,3.30
2018-09-11T12:13:29.141Z,3.12
2018-09-11T12:15:57.376Z,3.08
2018-09-11T12:18:25.632Z,2.80
2018-09-11T12:20:54.069Z,2.93
2018-09-11T12:23:22.352Z,2.77
2018-09-11T12:25:50.602Z,3.17
2018-09-11T12:28:18.833Z,2.72
2018-09-11T12:30:47.153Z,2.90
2018-09-11T12:33:15.417Z,2.80
2018-09-11T12:35:43.740Z,2.87
2018-09-11T12:38:12.201Z,3.02
2018-09-11T12:40:40.477Z,3.37
2018-09-11T12:43:08.746Z,3.52
2018-09-11T12:45:37.096Z,2.80
2018-09-11T12:48:06.076Z,3.02
2018-09-11T12:50:33.949Z,2.95
2018-09-11T12:53:02.267Z,3.52
2018-09-11T12:55:30.530Z,3.08
2018-09-11T12:57:58.770Z,3.00
2018-09-11T13:00:27.013Z,2.92
2018-09-11T13:02:55.274Z,2.92
2018-09-11T13:05:23.522Z,2.60
2018-09-11T13:07:51.794Z,2.80
2018-09-11T13:10:20.014Z,3.05
2018-09-11T13:12:48.288Z,2.45
2018-09-11T13:15:16.550Z,2.92
2018-09-11T13:17:44.637Z,2.80
2018-09-11T13:20:13.070Z,2.90
2018-09-11T13:22:41.478Z,2.95
2018-09-11T13:25:09.734Z,3.35
2018-09-11T13:27:38.018Z,3.02
2018-09-11T13:30:06.266Z,3.10
2018-09-11T13:32:34.490Z,2.98
2018-09-11T13:35:02.762Z,2.33
2018-09-11T13:37:31.021Z,2.67
2018-09-11T13:39:59.293Z,3.40
2018-09-11T13:42:27.694Z,2.80
2018-09-11T13:44:55.938Z,2.65
2018-09-11T13:47:24.510Z,2.85
2018-09-11T13:49:52.555Z,3.02
2018-09-11T13:52:20.803Z,3.10
2018-09-11T13:54:49.050Z,3.00
2018-09-11T13:57:17.051Z,3.25
2018-09-11T13:59:45.027Z,3.10
2018-09-11T14:02:13.097Z,2.77
2018-09-11T14:04:41.163Z,2.55
2018-09-11T14:07:09.222Z,2.90
2018-09-11T14:09:37.215Z,3.00
2018-09-11T14:12:05.227Z,2.77
2018-09-11T14:14:33.198Z,2.90
2018-09-11T14:17:01.211Z,2.90
2018-09-11T14:19:29.199Z,3.22
2018-09-11T14:21:57.194Z,2.58
2018-09-11T14:24:25.180Z,2.80
2018-09-11T14:26:53.185Z,2.50
2018-09-11T14:29:21.182Z,3.00
2018-09-11T14:31:49.186Z,2.62
2018-09-11T14:34:17.200Z,2.70
2018-09-11T14:36:45.185Z,2.90
2018-09-11T14:39:13.214Z,3.02
2018-09-11T14:41:41.251Z,2.50
2018-09-11T14:44:09.247Z,2.83
2018-09-11T14:46:37.383Z,2.30
2018-09-11T14:49:05.359Z,2.77
2018-09-11T14:51:33.381Z,2.73
2018-09-11T14:54:01.399Z,2.85
2018-09-11T14:56:29.428Z,2.83
2018-09-11T14:58:57.412Z,2.80
2018-09-11T15:01:25.404Z,2.63
2018-09-11T15:03:53.368Z,2.90
2018-09-11T15:06:21.335Z,2.50
2018-09-11T15:08:49.332Z,2.77
2018-09-11T15:11:17.424Z,2.80
2018-09-11T15:13:45.435Z,2.80
2018-09-11T15:16:13.436Z,2.57
2018-09-11T15:18:41.492Z,2.77
2018-09-11T15:21:09.692Z,2.87
2018-09-11T15:23:37.704Z,2.40
2018-09-11T15:26:05.659Z,2.30
2018-09-11T15:28:33.643Z,3.05
2018-09-11T15:31:01.896Z,2.90
2018-09-11T15:33:29.964Z,2.80
2018-09-11T15:35:57.992Z,2.33
2018-09-11T15:38:25.955Z,2.50
2018-09-11T15:40:53.968Z,2.60
2018-09-11T15:43:21.944Z,2.80
2018-09-11T15:45:50.140Z,2.80
2018-09-11T15:48:18.116Z,2.90
2018-09-11T15:50:46.199Z,2.75
2018-09-11T15:53:14.280Z,2.80
2018-09-11T15:55:42.589Z,2.90
2018-09-11T15:58:10.884Z,2.85
2018-09-11T16:00:39.157Z,2.67
2018-09-11T16:03:07.396Z,2.98
2018-09-11T16:05:35.677Z,2.72
2018-09-11T16:08:03.941Z,2.58
2018-09-11T16:10:32.165Z,2.87
2018-09-11T16:13:00.425Z,2.80
2018-09-11T16:15:28.705Z,2.80
2018-09-11T16:17:56.948Z,2.92
2018-09-11T16:20:25.232Z,3.22
2018-09-11T16:22:53.481Z,2.67
2018-09-11T16:25:21.749Z,2.80
2018-09-11T16:27:50.225Z,2.83
2018-09-11T16:30:18.469Z,2.75
2018-09-11T16:32:46.489Z,3.23
2018-09-11T16:35:14.513Z,3.50
2018-09-11T16:37:42.549Z,3.00
2018-09-11T16:40:10.692Z,3.10
2018-09-11T16:42:38.681Z,3.12
2018-09-11T16:45:07.121Z,3.03
2018-09-11T16:47:35.106Z,2.70
2018-09-11T16:50:03.113Z,3.30
2018-09-11T16:52:31.257Z,3.43
2018-09-11T16:54:59.305Z,3.17
2018-09-11T16:57:27.309Z,3.20
2018-09-11T16:59:55.382Z,3.30
2018-09-11T17:02:23.635Z,3.10
2018-09-11T17:04:51.590Z,3.27
2018-09-11T17:07:19.624Z,3.07
2018-09-11T17:09:47.593Z,3.17
2018-09-11T17:12:15.603Z,3.20
2018-09-11T17:14:43.618Z,3.17
2018-09-11T17:17:11.649Z,3.50
2018-09-11T17:19:39.693Z,3.13
2018-09-11T17:22:07.670Z,3.37
2018-09-11T17:24:35.670Z,3.27
2018-09-11T17:27:03.690Z,3.00
2018-09-11T17:29:31.678Z,3.17
2018-09-11T17:31:59.678Z,3.37
2018-09-11T17:34:27.684Z,3.40
2018-09-11T17:36:55.721Z,3.17
2018-09-11T17:39:23.722Z,2.80
2018-09-11T17:41:52.583Z,2.90
2018-09-11T17:44:20.578Z,3.20
2018-09-11T17:46:48.605Z,2.90
2018-09-11T17:49:16.662Z,3.10
2018-09-11T17:51:44.979Z,3.03
2018-09-11T17:54:13.279Z,2.87
2018-09-11T17:56:41.577Z,2.90
2018-09-11T17:59:09.913Z,3.07
2018-09-11T18:01:38.171Z,3.17
2018-09-11T18:04:06.427Z,3.40
2018-09-11T18:06:34.704Z,2.73
2018-09-11T18:09:03.027Z,3.20
2018-09-11T18:11:31.270Z,2.90
2018-09-11T18:13:59.511Z,3.02
2018-09-11T18:16:27.543Z,3.20
2018-09-11T18:18:55.511Z,3.53
2018-09-11T18:21:23.493Z,3.40
2018-09-11T18:23:51.471Z,2.77
2018-09-11T18:26:19.559Z,2.90
2018-09-11T18:28:47.599Z,3.40
2018-09-11T18:31:15.605Z,2.87
2018-09-11T18:33:43.692Z,3.10
2018-09-11T18:36:11.771Z,3.23
2018-09-11T18:38:39.803Z,3.00
2018-09-11T18:41:07.792Z,3.10
2018-09-11T18:43:35.777Z,3.17
2018-09-11T18:46:03.759Z,3.23
2018-09-11T18:48:31.760Z,7.47
2018-09-11T18:50:59.748Z,3.47
2018-09-11T18:53:27.729Z,3.00
2018-09-11T18:55:55.752Z,2.80
2018-09-11T18:58:23.780Z,2.90
2018-09-11T19:00:51.863Z,2.87
2018-09-11T19:03:19.852Z,3.20
2018-09-11T19:05:47.872Z,2.80
2018-09-11T19:08:15.871Z,2.90
2018-09-11T19:10:43.877Z,2.83
2018-09-11T19:13:11.922Z,3.03
2018-09-11T19:15:39.907Z,2.73
2018-09-11T19:18:07.913Z,3.03
2018-09-11T19:20:35.904Z,3.10
2018-09-11T19:23:03.916Z,3.20
2018-09-11T19:25:31.896Z,3.00
2018-09-11T19:27:59.939Z,3.00
2018-09-11T19:30:27.936Z,3.20
2018-09-11T19:32:55.970Z,3.23
2018-09-11T19:35:23.989Z,3.23
2018-09-11T19:37:51.989Z,2.90
2018-09-11T19:40:20.028Z,2.83
2018-09-11T19:42:48.080Z,3.10
2018-09-11T19:45:16.109Z,3.10
2018-09-11T19:47:44.158Z,3.37
2018-09-11T19:50:12.238Z,3.20
2018-09-11T19:52:40.180Z,3.23
2018-09-11T19:55:08.180Z,3.23
2018-09-11T19:57:36.240Z,2.73
2018-09-11T20:00:04.489Z,3.03
2018-09-11T20:02:32.515Z,2.83
2018-09-11T20:05:00.521Z,3.00
2018-09-11T20:07:28.572Z,3.03
2018-09-11T20:09:56.888Z,3.13
2018-09-11T20:12:24.897Z,3.10
2018-09-11T20:14:52.877Z,3.13
2018-09-11T20:17:20.904Z,2.90
2018-09-11T20:19:48.948Z,3.13
2018-09-11T20:22:16.925Z,3.07
2018-09-11T20:24:44.925Z,3.50
2018-09-11T20:27:12.920Z,3.30
2018-09-11T20:29:41.005Z,3.07
2018-09-11T20:32:09.234Z,3.10
2018-09-11T20:34:37.125Z,3.10
2018-09-11T20:37:05.129Z,2.80
2018-09-11T20:39:33.142Z,3.27
2018-09-11T20:42:01.125Z,3.33
2018-09-11T20:44:29.201Z,3.23
2018-09-11T20:46:57.241Z,2.97
2018-09-11T20:49:25.249Z,3.20
2018-09-11T20:51:53.283Z,3.00
2018-09-11T20:54:21.326Z,2.80
2018-09-11T20:56:49.318Z,3.00
2018-09-11T20:59:17.301Z,3.03
2018-09-11T21:01:45.339Z,10.33
2018-09-11T21:04:13.346Z,3.10
2018-09-11T21:06:41.498Z,2.93
2018-09-11T21:09:10.102Z,2.93
2018-09-11T21:11:38.191Z,2.90
2018-09-11T21:14:06.242Z,2.80
2018-09-11T21:16:34.242Z,2.80
2018-09-11T21:19:02.285Z,2.90
2018-09-11T21:21:30.270Z,2.90
2018-09-11T21:23:58.306Z,3.23
2018-09-11T21:26:26.306Z,3.20
2018-09-11T21:28:54.282Z,2.90
2018-09-11T21:31:22.306Z,3.27
2018-09-11T21:33:50.339Z,3.10
2018-09-11T21:36:18.317Z,3.10
2018-09-11T21:38:46.294Z,2.87
2018-09-11T21:41:14.666Z,3.43
2018-09-11T21:43:43.599Z,3.20
2018-09-11T21:46:11.672Z,3.00
2018-09-11T21:48:39.730Z,3.10
2018-09-11T21:51:08.006Z,3.07
2018-09-11T21:53:36.010Z,3.57
2018-09-11T21:56:04.014Z,3.20
2018-09-11T21:58:31.998Z,3.37
2018-09-11T22:01:02.972Z,3.17
2018-09-11T22:03:31.086Z,3.37
2018-09-11T22:05:59.198Z,2.90
2018-09-11T22:08:27.190Z,3.30
2018-09-11T22:10:55.174Z,3.30
2018-09-11T22:13:23.166Z,3.30
2018-09-11T22:15:51.174Z,3.00
2018-09-11T22:18:19.167Z,3.60
2018-09-11T22:20:47.198Z,3.30
2018-09-11T22:23:15.191Z,3.30
2018-09-11T22:25:43.682Z,3.47
2018-09-11T22:28:11.698Z,3.60
2018-09-11T22:30:39.693Z,3.40
2018-09-11T22:33:07.767Z,3.70
2018-09-11T22:35:35.735Z,4.03
2018-09-11T22:38:03.735Z,3.80
2018-09-11T22:40:31.775Z,3.50
2018-09-11T22:42:59.772Z,3.90
2018-09-11T22:45:28.662Z,4.40
2018-09-11T22:47:56.674Z,4.20
2018-09-11T22:50:24.726Z,4.67
2018-09-11T22:52:52.706Z,4.60
2018-09-11T22:55:20.715Z,4.77
2018-09-11T22:57:48.687Z,4.93
2018-09-11T23:00:16.687Z,4.83
2018-09-11T23:02:44.674Z,4.77
2018-09-11T23:05:12.655Z,4.30
2018-09-11T23:07:40.659Z,4.43
2018-09-11T23:10:08.720Z,4.60
2018-09-11T23:12:36.763Z,4.70
2018-09-11T23:15:04.768Z,4.57
2018-09-11T23:17:32.755Z,4.90
2018-09-11T23:20:00.803Z,4.90
2018-09-11T23:22:28.808Z,5.43
2018-09-11T23:24:56.787Z,4.83
2018-09-11T23:27:24.780Z,4.47
2018-09-11T23:29:52.769Z,4.60
2018-09-11T23:32:20.763Z,4.90
2018-09-11T23:34:48.763Z,5.30
2018-09-11T23:37:16.843Z,5.70
2018-09-11T23:39:44.839Z,5.13
2018-09-11T23:42:12.840Z,5.30
2018-09-11T23:44:40.831Z,5.53
2018-09-11T23:47:08.807Z,5.30
2018-09-11T23:49:36.783Z,6.40
2018-09-11T23:52:04.784Z,5.53
2018-09-11T23:54:32.767Z,5.30
2018-09-11T23:57:00.765Z,5.47
2018-09-11T23:59:28.787Z,5.93
